Airfield :
LOGIN :

Register | Disclaimer

   EN    FR    IT 

 










Legend :    VFR   Marginal VFR   IFR   Intensive IFR   Very Intensive IFR
Visi :
Ceiling :
>= 8 km
>= 3000ft
5 to 8 km
1000 to 3000 ft
1500m to 5 km
500 to 1000 ft
800 to 1500m
200 to 500 ft
< 800m
< 200 ft
Symbols :   Thunderstorms  Fog  Heavy snow  Heavy precipitations  Wind > 20 kt
SIGMETs :     Misc.  Thunderstorms  Icing  Turbulence  Mountain Waves  Volcanic Ashes







- Airport Elevation : 13 ft
- IATA code : LYX
- Download approach charts


EGMD - Lydd

CURRENT METAR :
  • 162150Z AUTO 32006KT 9999 FEW015/// SCT019/// 02/01 Q1022

EXPIRED METARs :
  • 162120Z AUTO 32006KT 9999 BKN013/// BKN018/// 02/01 Q1021
  • 162050Z AUTO 30007KT 9999 BKN015/// BKN022/// OVC036/// 03/02 Q1021
  • 162020Z AUTO 29006KT 9999 BKN021/// 03/02 Q1020
  • 161950Z AUTO 33006KT 9999 SCT019/// 02/01 Q1020
  • 161920Z AUTO 30006KT 9999 NCD 03/01 Q1020

TAF TAF EGMD
Valid from the 16 at 21:00 until the 17 at 06:00 UTC


162000Z 1621/1706 32007KT 9999 FEW030
PROB30 1621/1624 2000 BR BKN002
PROB40 1700/1706 0300 FG VV///
ATIS : +44 1797 322 422
No reported NOTAMs for that airfield.



MET'MAP, your aeronautical weather chart ! - Copyright ORBIFLY December 2007 - Disclaimer

ORBIFLY MET'MAP TEAM :

Programming & Development : Alexandra Zaïnal
Concept & Development : Baudouin d'Aumeries
Co-Development & Prog : Marc-Olivier Méhu
Technical & hardware support : Manuel Goepfert

Contact : metmap@orbifly.com




SOURCES & CREDITS :

   NOAA